KMTC/MTC METAR and TAF weather

Enter ICAO airport designator
Station Type Date Time Source
KMTC METAR 2020/02/22 06:56 UTC NOAA

KMTC 220656Z AUTO 23008KT 10SM CLR M02/M10 A3024 RMK AO2 SLP252 T10251105


Station Type Date Time Source
KMTC Decoded METAR 2020/02/22 06:56 UTC NOAA

Selfridge Air National Guard Base, MI, United States (KMTC) 42-37N 082-50W
Feb 22, 2020 - 01:56 AM EST / 2020.02.22 0656 UTC
Wind: from the SW (230 degrees) at 9 MPH (8 KT):0
Visibility: 10 mile(s):0
Sky conditions: clear
Temperature: 27.5 F (-2.5 C)
Windchill: 19 F (-7 C):1
Dew Point: 13.1 F (-10.5 C)
Relative Humidity: 54%
Pressure (altimeter): 30.24 in. Hg (1024 hPa)
ob: KMTC 220656Z AUTO 23008KT 10SM CLR M02/M10 A3024 RMK AO2 SLP252 T10251105
cycle: 7

Station Type Date Time Source
KMTC TAF 2020/02/22 01:09 UTC NOAA

TAF KMTC 220100Z 2201/2307 22009KT 9999 SKC 510209 QNH3030INS
BECMG 2215/2216 24012G18KT 9999 SKC QNH3021INS
BECMG 2222/2223 24009KT 9999 FEW020 QNH3014INS TX05/2220Z TNM05/2208Z LAST NO
AMDS AFT 2204 NEXT 2209

Example: see airport list